Relevés horaires Bierset (Belgique)


Relevés horaires à Bierset - Samedi 02 Déc. 2023
Heure UTC1 Température [°C] Vent [km/h] Hum. [%] Pres.4 [hPa] Visi. [Km] Nébu. [octa] Préc.5 [mm] Cond.
2m. Res. Ros. Dir.2 Vit. Moy. Raf.3
23:00 -2.1 -5 -3.3 S 7.4 7.4 11.1 91 1020.8(1.0/3h) 7 6/8 -- --
22:00 -2.5 -4.7 -4.4 S 5.6 7.4 9.3 87 1020.5(1.1/3h) 11 2/8 -- --
21:00 -2.3 -2.3 -4.6 SSO 3.7 7.4 11.1 84 1020.2(1.2/3h) 15 2/8 -- --
20:00 -2.0 -4.9 -4.5 SSO 7.4 7.4 11.1 83 1019.8(1.1/3h) 20 4/8 -- --
19:00 -1.1 -3.1 -4.3 S 5.6 5.6 9.3 79 1019.3(1.4/3h) 20 7/8 -- --
18:00 -1.0 -3 -4.2 S 5.6 7.4 9.3 79 1018.9(2.0/3h) 16 7/8 0/12h
--
17:00 -0.9 -0.9 -4.2 S 3.7 5.6 9.3 78 1018.5(2.5/3h) 16 7/8 -- --
16:00 -0.8 -2.8 -4.2 OSO 5.6 5.6 9.3 78 1017.8(2.2/3h) 16 7/8 -- --
15:00 -1.2 -3.2 -4.4 O 5.6 7.4 9.3 79 1016.9(1.5/3h) 14 6/8 -- --
14:00 -0.9 -2.9 -4.9 O 5.6 5.6 9.3 74 1016(1.0/3h) 14 1/8 -- --
13:00 -1.4 -1.4 -5.8 O 3.7 3.7 7.4 72 1015.6(0.9/3h) 18 2/8 -- --
12:00 -1.8 -1.8 -5.7 O 3.7 7.4 11.1 75 1015.4(1.2/3h) 16 2/8 0/6h
--
11:00 -2.5 -2.5 -6.0 NO 3.7 3.7 5.6 77 1015.1(1.4/3h) 16 3/8 -- --
10:00 -2.8 -2.8 -6.1 N 1.9 1.9 3.7 78 1014.9(1.8/3h) 16 1/8 -- --
09:00 -3.4 -3.4 -6.2 ONO 1.9 7.4 11.1 81 1014.3(2.0/3h) 15 1/8 -- --
08:00 -3.8 -3.8 -6.3 N 1.9 5.6 7.4 83 1013.8(2.0/3h) 14 4/8 -- --
07:00 -3.3 -3.3 -6.6 NE 3.7 7.4 11.1 78 1013.1(1.9/3h) 20 7/8 -- --
06:00 -3.2 -5.5 -6.1 NNE 5.6 9.3 14.8 80 1012.2(1.3/3h) 20 8/8 0/12h
--
05:00 -3.1 -5.4 -5.9 N 5.6 7.4 13.0 81 1011.7(1.1/3h) 20 8/8 -- --
04:00 -3.1 -6.2 -6.1 NE 7.4 9.3 13.0 80 1011.1(0.9/3h) 20 8/8 -- --
03:00 -3.1 -6.2 -6.0 NE 7.4 9.3 14.8 80 1010.9(0.8/3h) 20 8/8 -- --
02:00 -3.0 -6.7 -6.1 NE 9.3 9.3 13.0 79 1010.5(0.8/3h) 20 8/8 -- --
01:00 -3.0 -6.7 -6.5 NNE 9.3 9.3 13.0 77 1010.2(0.7/3h) 20 8/8 -- --
00:00 -2.8 -5.8 -6.4 N 7.4 9.3 14.8 76 1010.1(0.9/3h) 20 8/8 0/6h
0/24h
--

1 Coordinated Universal Time. Actuellement il est 23:00 locale et 21:00 UTC.

2 Le vent souffle depuis la direction indiquée vers la direction oposée.

3 Les rafales max. sont disponible 40 min après l'heure du relevé.

4 Pour les stations d'altitude (plus de 600m) le géopotentiel du niveau le plus proche de la pression obligatoire est indiqué.

5 Les stations disposant d'un diffuseur peuvent indiquer "trace". Cela signifie que des précipitations ont touchés le sol mais que la quantité est inférieure à 0.1 mm.

Récapitulatif de la journée
Température [°C] Vent [km/h] Ensoleillement4 [h] Precipitations totale5 [mm] Pression [Hpa]
Min1 Max.2 Moy.3 Max. Min Max.
-3.3 -0.7 7 14.8 0 h 0 min 0 1010.1 1020.8

1 Température minimale relevée entre 18:00 UTC la veille et 18:00 UTC le jour donné.

2 Température maximale relevée entre 06:00 UTC le jour donné et 06:00 UTC le lendemain.

3 Vent moyen de la journée basé sur les relevés horaires.

4 Ensoleillement en heures relevé entre 06:00 UTC la veille et 06:00 UTC le jour donné.

5 Précipitations totales tombées entre 06:00 UTC la jour donné et 06:00 UTC le lendemain.

Graphiques horaires